Terminal Aerodrome Forecast
Issued by NWS

Current Version | Previous Version | Graphics & Text | Print | Product List | Glossary On
Versions: 1 2 3 4 5 6 7 8 9 10 11 12 13 14 15 16 17 18 19 20 21 22 23 24 25 26
000
FTUS41 KPBZ 270658 AAA
TAFHLG
TAF AMD
KHLG 270658Z 2707/2806 18005KT P6SM OVC100
     FM271300 21007KT P6SM VCSH OVC050
     FM271600 21012G18KT P6SM VCSH BKN025
     FM272100 17004KT P6SM BKN040=

USA.gov is the U.S. government's official web portal to all federal, state and local government web resources and services.